Time;durP1;ratioP1;P1;durP2;ratioP2;P2;SDS_P1;SDS_P2;PMS_P1;PMS_P2;Temp;Humidity;BMP_temperature;BMP_pressure;BME280_temperature;BME280_humidity;BME280_pressure;Samples;Min_cycle;Max_cycle;Signal;HPM_P1;HPM_P2
2021/01/11 00:00:20;;;;;;;3.25;2.63;;;17.30;52.80;;;;;;5086955;28;20253;-63
2021/01/11 00:02:45;;;;;;;2.80;2.53;;;17.30;52.70;;;;;;5087436;28;20370;-63
2021/01/11 00:05:11;;;;;;;3.10;2.80;;;17.20;52.60;;;;;;5087302;28;20700;-62
2021/01/11 00:07:38;;;;;;;4.28;2.88;;;17.20;52.70;;;;;;5086934;28;20296;-61
2021/01/11 00:10:04;;;;;;;2.70;2.50;;;17.20;52.60;;;;;;5068929;28;20234;-61
2021/01/11 00:12:35;;;;;;;4.00;3.28;;;17.20;52.60;;;;;;5087295;28;20598;-63
2021/01/11 00:15:01;;;;;;;3.22;2.83;;;17.20;52.60;;;;;;5087353;28;20212;-63
2021/01/11 00:17:26;;;;;;;3.38;3.08;;;17.10;52.50;;;;;;5086957;28;20288;-63
2021/01/11 00:19:52;;;;;;;2.90;2.70;;;17.20;53.20;;;;;;5086611;28;20209;-63
2021/01/11 00:22:17;;;;;;;3.30;2.97;;;17.20;52.60;;;;;;5086674;28;20174;-62
2021/01/11 00:24:43;;;;;;;3.38;3.08;;;17.10;52.50;;;;;;5086885;28;20178;-63
2021/01/11 00:27:09;;;;;;;2.90;2.70;;;17.00;52.40;;;;;;5086676;28;20189;-63
2021/01/11 00:29:34;;;;;;;3.03;2.63;;;17.00;52.40;;;;;;5086203;28;20204;-62
2021/01/11 00:32:00;;;;;;;3.78;3.40;;;17.10;52.50;;;;;;5086429;28;20256;-63
2021/01/11 00:34:25;;;;;;;3.30;3.00;;;17.00;52.40;;;;;;5085683;28;20581;-62
2021/01/11 00:36:58;;;;;;;3.35;3.05;;;17.00;52.50;;;;;;5086466;28;20181;-62
2021/01/11 00:39:24;;;;;;;3.50;3.17;;;17.00;52.40;;;;;;5086258;28;20209;-64
2021/01/11 00:41:58;;;;;;;3.72;3.33;;;17.00;52.50;;;;;;5086371;28;20234;-64
2021/01/11 00:44:24;;;;;;;3.30;3.05;;;17.00;52.50;;;;;;5086713;28;20173;-63
2021/01/11 00:46:49;;;;;;;4.72;3.10;;;17.00;52.40;;;;;;5086604;28;20162;-63
2021/01/11 00:49:15;;;;;;;3.50;3.20;;;17.00;52.40;;;;;;5086485;28;20174;-62
2021/01/11 00:51:40;;;;;;;3.55;3.25;;;17.00;52.40;;;;;;5086389;28;20177;-62
2021/01/11 00:54:06;;;;;;;3.58;3.28;;;16.90;52.40;;;;;;5085983;28;20178;-62
2021/01/11 00:56:33;;;;;;;3.58;3.33;;;16.90;52.30;;;;;;5086230;28;20173;-63
2021/01/11 00:58:58;;;;;;;3.58;3.35;;;16.90;52.40;;;;;;5068066;28;20262;-63
2021/01/11 01:01:24;;;;;;;3.97;3.67;;;16.90;52.30;;;;;;5068262;28;20186;-64
2021/01/11 01:03:49;;;;;;;4.05;3.70;;;16.90;52.40;;;;;;5086191;28;20174;-62
2021/01/11 01:06:15;;;;;;;3.70;3.40;;;16.90;52.40;;;;;;5085853;28;20527;-61
2021/01/11 01:08:41;;;;;;;3.38;3.08;;;16.90;52.40;;;;;;5085568;28;20587;-62
2021/01/11 01:11:10;;;;;;;3.58;3.28;;;16.80;52.30;;;;;;5085888;28;20174;-62
2021/01/11 01:13:35;;;;;;;3.78;3.47;;;16.90;52.40;;;;;;5068002;28;20261;-63
2021/01/11 01:16:01;;;;;;;3.65;3.35;;;16.90;52.30;;;;;;5067738;28;20261;-63
2021/01/11 01:18:26;;;;;;;3.70;3.30;;;16.80;52.30;;;;;;5067727;28;20209;-63
2021/01/11 01:20:52;;;;;;;4.20;3.85;;;16.80;52.30;;;;;;5085319;28;20178;-62
2021/01/11 01:23:18;;;;;;;3.80;3.50;;;16.80;52.30;;;;;;5067758;28;20170;-62
2021/01/11 01:25:43;;;;;;;4.00;3.60;;;16.80;52.30;;;;;;5085765;28;20170;-62
2021/01/11 01:28:09;;;;;;;3.70;3.40;;;16.80;52.20;;;;;;5085499;28;20185;-62
2021/01/11 01:30:34;;;;;;;4.20;3.78;;;16.80;52.30;;;;;;5085391;28;21005;-61
2021/01/11 01:33:00;;;;;;;4.47;4.07;;;16.70;52.30;;;;;;5085359;28;20170;-62
2021/01/11 01:35:26;;;;;;;4.32;3.92;;;16.70;52.20;;;;;;5066699;28;20177;-62
2021/01/11 01:37:51;;;;;;;3.92;3.47;;;16.70;52.10;;;;;;5067312;28;20214;-62
2021/01/11 01:40:17;;;;;;;3.92;3.60;;;16.70;52.20;;;;;;5085045;28;20170;-62
2021/01/11 01:42:43;;;;;;;4.40;4.00;;;16.70;52.20;;;;;;5085097;28;20232;-62
2021/01/11 01:45:09;;;;;;;4.35;3.95;;;16.70;52.20;;;;;;5066305;28;20196;-63
2021/01/11 01:47:34;;;;;;;3.90;3.55;;;16.70;52.10;;;;;;5084051;28;20181;-62
2021/01/11 01:50:02;;;;;;;4.35;3.80;;;16.70;52.20;;;;;;5066951;28;20281;-62
2021/01/11 01:52:28;;;;;;;4.30;3.88;;;16.70;52.20;;;;;;5066772;28;20218;-62
2021/01/11 01:54:53;;;;;;;4.20;3.90;;;16.70;52.20;;;;;;5085192;28;20642;-63
2021/01/11 01:57:19;;;;;;;4.32;3.92;;;16.70;52.20;;;;;;5066664;28;21081;-63
2021/01/11 01:59:48;;;;;;;4.47;3.90;;;16.60;52.10;;;;;;5066756;28;20170;-62
2021/01/11 02:02:14;;;;;;;4.15;3.85;;;16.60;52.10;;;;;;5084802;28;20172;-61
2021/01/11 02:04:43;;;;;;;4.63;4.22;;;16.60;52.10;;;;;;5084740;28;20180;-61
2021/01/11 02:07:20;;;;;;;4.68;4.28;;;16.60;52.10;;;;;;5085016;28;20255;-61
2021/01/11 02:10:24;;;;;;;4.72;4.32;;;16.60;52.10;;;;;;5068260;28;20169;-62
2021/01/11 02:12:56;;;;;;;4.00;3.60;;;16.60;52.10;;;;;;5011735;28;20304;-63
2021/01/11 02:15:26;;;;;;;4.80;4.40;;;16.60;52.10;;;;;;5067124;28;20281;-62
2021/01/11 02:18:04;;;;;;;4.07;3.78;;;16.60;52.00;;;;;;5066482;28;20216;-62
2021/01/11 02:20:46;;;;;;;4.50;4.10;;;16.60;52.10;;;;;;5066583;28;20764;-62
2021/01/11 02:23:21;;;;;;;4.20;3.90;;;16.50;52.10;;;;;;5084254;28;20886;-62
2021/01/11 02:25:53;;;;;;;4.85;4.45;;;16.50;52.10;;;;;;5084551;28;20169;-62
2021/01/11 02:28:37;;;;;;;3.65;3.42;;;16.60;52.10;;;;;;5063092;28;20197;-62
2021/01/11 02:31:02;;;;;;;4.03;3.63;;;16.50;52.10;;;;;;5046197;28;20932;-63
2021/01/11 02:33:28;;;;;;;4.63;4.22;;;16.50;52.10;;;;;;5063005;28;21139;-60
2021/01/11 02:36:03;;;;;;;4.63;4.22;;;16.50;52.10;;;;;;5062930;28;20265;-62
2021/01/11 02:38:29;;;;;;;5.00;4.35;;;16.50;52.00;;;;;;5064194;28;20206;-62
2021/01/11 02:40:55;;;;;;;4.78;4.38;;;16.50;52.10;;;;;;5064232;28;20656;-63
2021/01/11 02:43:20;;;;;;;4.13;3.83;;;16.50;52.10;;;;;;5064343;28;20202;-64
2021/01/11 02:45:46;;;;;;;4.72;4.32;;;16.50;52.10;;;;;;5064351;28;20170;-60
2021/01/11 02:48:27;;;;;;;6.05;3.83;;;16.50;52.00;;;;;;5064291;28;20178;-64
2021/01/11 02:50:58;;;;;;;5.85;4.90;;;16.40;53.00;;;;;;5064473;28;20166;-62
2021/01/11 02:53:28;;;;;;;3.88;3.38;;;16.40;52.60;;;;;;5064198;28;20257;-63
2021/01/11 02:56:00;;;;;;;4.68;4.25;;;16.50;52.40;;;;;;5062849;28;20543;-63
2021/01/11 02:58:30;;;;;;;5.13;4.65;;;16.50;52.30;;;;;;5066814;28;20879;-63
2021/01/11 03:00:55;;;;;;;5.50;4.40;;;16.50;52.20;;;;;;5067144;28;20209;-63
2021/01/11 03:03:21;;;;;;;5.65;4.43;;;16.50;52.30;;;;;;5067155;28;20201;-62
2021/01/11 03:05:49;;;;;;;6.47;4.60;;;16.60;52.40;;;;;;5067110;28;20201;-62
2021/01/11 03:08:15;;;;;;;6.47;5.15;;;16.60;52.40;;;;;;5066793;28;20178;-64
2021/01/11 03:10:40;;;;;;;5.13;4.63;;;16.60;52.40;;;;;;5068033;28;20181;-64
2021/01/11 03:13:06;;;;;;;5.60;5.03;;;16.60;52.40;;;;;;5067998;28;20189;-64
2021/01/11 03:15:32;;;;;;;6.32;4.70;;;16.60;52.50;;;;;;5067976;28;20217;-63
2021/01/11 03:17:57;;;;;;;5.22;4.72;;;16.60;52.60;;;;;;5067357;28;20205;-64
2021/01/11 03:20:23;;;;;;;5.15;4.68;;;16.60;52.40;;;;;;5067675;28;20182;-63
2021/01/11 03:22:48;;;;;;;7.00;5.63;;;16.60;52.40;;;;;;5067663;28;20174;-63
2021/01/11 03:25:14;;;;;;;5.32;4.82;;;16.60;52.40;;;;;;5067793;28;20179;-62
2021/01/11 03:27:39;;;;;;;5.43;4.90;;;16.60;52.40;;;;;;5067567;28;20691;-63
2021/01/11 03:30:06;;;;;;;6.20;5.60;;;16.70;52.50;;;;;;5086662;28;20229;-63
2021/01/11 03:32:31;;;;;;;6.28;5.03;;;16.60;52.40;;;;;;5069792;28;20965;-64
2021/01/11 03:34:57;;;;;;;6.40;5.20;;;16.60;52.40;;;;;;5087644;28;20181;-63
2021/01/11 03:37:22;;;;;;;5.53;5.00;;;16.70;52.50;;;;;;5087264;28;20212;-62
2021/01/11 03:39:48;;;;;;;6.07;5.47;;;16.60;52.60;;;;;;5087553;28;20182;-63
2021/01/11 03:42:14;;;;;;;6.30;5.30;;;16.60;52.40;;;;;;5087396;28;20169;-64
2021/01/11 03:44:39;;;;;;;5.78;5.22;;;16.60;52.50;;;;;;5087253;28;20228;-62
2021/01/11 03:47:05;;;;;;;6.57;5.22;;;16.60;52.50;;;;;;5087511;28;20196;-64
2021/01/11 03:49:30;;;;;;;6.07;5.47;;;16.60;52.50;;;;;;5087262;28;20644;-63
2021/01/11 03:52:02;;;;;;;6.30;5.43;;;16.60;52.60;;;;;;5087440;28;20525;-62
2021/01/11 03:54:29;;;;;;;6.32;5.35;;;16.60;52.50;;;;;;5087462;28;20212;-63
2021/01/11 03:56:54;;;;;;;6.00;5.40;;;16.60;52.50;;;;;;5087091;28;20174;-61
2021/01/11 03:59:20;;;;;;;6.47;5.03;;;16.60;52.50;;;;;;5069023;28;20469;-61
2021/01/11 04:01:45;;;;;;;7.78;6.68;;;16.60;52.90;;;;;;5087116;28;20186;-63
2021/01/11 04:04:11;;;;;;;5.95;5.32;;;16.60;52.60;;;;;;5087365;28;20273;-61
2021/01/11 04:06:36;;;;;;;6.38;5.78;;;16.60;52.70;;;;;;5086893;28;20178;-62
2021/01/11 04:09:02;;;;;;;6.30;5.70;;;16.50;52.60;;;;;;5085848;28;20174;-61
2021/01/11 04:11:28;;;;;;;5.65;5.03;;;16.50;52.50;;;;;;5087139;28;20627;-62
2021/01/11 04:13:53;;;;;;;6.60;5.90;;;16.40;52.50;;;;;;5086924;28;20173;-62
2021/01/11 04:16:19;;;;;;;6.50;5.88;;;16.50;52.50;;;;;;5087019;28;20185;-63
2021/01/11 04:18:44;;;;;;;6.53;5.80;;;16.40;52.50;;;;;;5086618;28;20632;-64
2021/01/11 04:21:11;;;;;;;6.65;5.95;;;16.30;52.40;;;;;;5086685;28;20192;-62
2021/01/11 04:23:37;;;;;;;6.82;5.80;;;16.40;52.30;;;;;;5086812;28;20227;-62
2021/01/11 04:26:02;;;;;;;7.03;6.32;;;16.40;52.50;;;;;;5086591;28;20631;-62
2021/01/11 04:28:28;;;;;;;6.75;6.10;;;16.30;52.40;;;;;;5086393;28;20193;-61
2021/01/11 04:30:53;;;;;;;8.50;7.18;;;16.30;52.30;;;;;;5086490;28;20200;-61
2021/01/11 04:33:19;;;;;;;7.43;6.70;;;16.20;52.30;;;;;;5086421;28;20188;-60
2021/01/11 04:35:44;;;;;;;7.65;6.85;;;16.30;52.30;;;;;;5086577;28;20641;-62
2021/01/11 04:38:10;;;;;;;7.30;6.60;;;16.20;52.30;;;;;;5086321;28;20727;-62
2021/01/11 04:40:35;;;;;;;7.55;6.45;;;16.20;52.20;;;;;;5086601;28;20550;-62
2021/01/11 04:43:08;;;;;;;6.15;5.45;;;16.20;52.30;;;;;;5068666;28;20224;-63
2021/01/11 04:45:33;;;;;;;6.95;6.18;;;16.20;52.30;;;;;;5068419;28;20174;-62
2021/01/11 04:47:59;;;;;;;7.45;6.75;;;16.20;52.30;;;;;;5067974;28;20185;-64
2021/01/11 04:50:26;;;;;;;6.43;5.70;;;16.20;52.30;;;;;;5068393;28;20178;-62
2021/01/11 04:52:51;;;;;;;6.95;6.25;;;16.20;52.30;;;;;;5086200;28;20188;-61
2021/01/11 04:55:17;;;;;;;6.88;6.07;;;16.10;52.30;;;;;;5068180;28;20544;-62
2021/01/11 04:57:56;;;;;;;7.60;6.53;;;16.10;52.20;;;;;;5067969;28;20538;-62
2021/01/11 05:00:26;;;;;;;6.35;5.75;;;16.10;52.20;;;;;;5085932;28;20201;-61
2021/01/11 05:03:01;;;;;;;8.65;6.45;;;16.10;52.20;;;;;;5085666;28;20188;-62
2021/01/11 05:05:34;;;;;;;7.80;6.72;;;16.10;52.20;;;;;;5086108;28;20180;-62
2021/01/11 05:08:00;;;;;;;7.00;6.30;;;16.10;52.20;;;;;;5085761;28;20181;-62
2021/01/11 05:10:27;;;;;;;6.68;5.80;;;16.10;52.20;;;;;;5085459;28;20173;-62
2021/01/11 05:13:03;;;;;;;7.85;7.05;;;16.10;52.20;;;;;;5085771;28;20511;-62
2021/01/11 05:15:33;;;;;;;6.97;6.38;;;16.10;52.10;;;;;;5085774;28;20173;-63
2021/01/11 05:17:58;;;;;;;7.85;6.53;;;16.00;52.10;;;;;;5068177;28;20235;-63
2021/01/11 05:20:26;;;;;;;7.60;6.60;;;16.00;52.10;;;;;;5085208;28;20173;-62
2021/01/11 05:22:52;;;;;;;8.32;7.10;;;16.00;52.10;;;;;;5085427;28;20203;-63
2021/01/11 05:25:20;;;;;;;7.05;6.35;;;16.00;52.20;;;;;;5067803;28;20950;-62
2021/01/11 05:27:47;;;;;;;7.30;6.53;;;16.00;52.10;;;;;;5085516;28;20200;-62
2021/01/11 05:30:21;;;;;;;7.13;6.43;;;16.00;52.10;;;;;;5067541;28;20189;-61
2021/01/11 05:32:47;;;;;;;9.65;7.22;;;16.00;52.10;;;;;;5085298;28;20236;-61
2021/01/11 05:35:13;;;;;;;7.25;6.22;;;15.90;52.00;;;;;;5067618;28;20169;-61
2021/01/11 05:37:39;;;;;;;7.05;6.35;;;15.90;52.00;;;;;;5067133;28;20188;-61
2021/01/11 05:40:15;;;;;;;7.00;6.30;;;15.90;52.00;;;;;;5085533;28;20269;-63
2021/01/11 05:42:41;;;;;;;8.60;7.05;;;15.90;52.00;;;;;;5067166;28;20166;-63
2021/01/11 05:45:17;;;;;;;8.10;7.18;;;15.90;52.00;;;;;;5084956;28;20166;-62
2021/01/11 05:48:03;;;;;;;7.63;6.80;;;15.90;52.00;;;;;;5067057;28;20921;-63
2021/01/11 05:50:30;;;;;;;7.47;6.68;;;15.90;52.00;;;;;;5085117;28;20256;-63
2021/01/11 05:52:56;;;;;;;7.88;7.07;;;15.90;52.00;;;;;;5084764;28;20174;-62
2021/01/11 05:55:23;;;;;;;7.45;6.68;;;15.90;52.00;;;;;;5084922;28;20196;-62
2021/01/11 05:57:53;;;;;;;7.68;6.85;;;15.90;52.00;;;;;;5066976;28;20254;-62
2021/01/11 06:00:20;;;;;;;7.18;6.25;;;15.90;52.10;;;;;;5085158;28;20170;-61
2021/01/11 06:02:47;;;;;;;6.60;5.90;;;15.90;52.20;;;;;;5084933;28;20227;-62
2021/01/11 06:05:14;;;;;;;6.05;5.45;;;15.90;52.30;;;;;;5084576;28;20593;-61
2021/01/11 06:07:39;;;;;;;6.32;5.40;;;16.00;52.40;;;;;;5066953;28;20303;-61
2021/01/11 06:10:05;;;;;;;7.85;5.80;;;16.20;52.20;;;;;;5066954;28;20257;-63
2021/01/11 06:12:31;;;;;;;7.55;5.93;;;16.50;52.10;;;;;;5066661;28;20181;-63
2021/01/11 06:14:56;;;;;;;6.32;5.57;;;16.80;51.90;;;;;;5066450;28;20174;-63
2021/01/11 06:17:22;;;;;;;7.35;5.55;;;17.00;51.40;;;;;;5066706;28;20170;-62
2021/01/11 06:19:48;;;;;;;5.88;5.28;;;17.40;50.80;;;;;;5066711;28;20173;-63
2021/01/11 06:22:14;;;;;;;5.82;5.22;;;17.80;50.00;;;;;;5066544;28;20169;-62
2021/01/11 06:24:39;;;;;;;5.80;5.20;;;18.00;49.50;;;;;;5084284;28;20283;-63
2021/01/11 06:27:15;;;;;;;5.10;4.60;;;18.40;49.00;;;;;;5084424;28;20181;-63
2021/01/11 06:29:45;;;;;;;6.03;5.15;;;18.50;48.70;;;;;;5084315;28;20673;-62
2021/01/11 06:32:21;;;;;;;4.95;4.45;;;18.70;48.50;;;;;;5083457;28;20572;-61
2021/01/11 06:34:47;;;;;;;5.35;4.53;;;18.80;48.40;;;;;;5084445;28;20166;-63
2021/01/11 06:37:17;;;;;;;5.63;4.55;;;18.80;48.30;;;;;;5066541;28;20650;-62
2021/01/11 06:39:43;;;;;;;6.00;5.13;;;18.90;48.40;;;;;;5066324;28;20586;-64
2021/01/11 06:42:12;;;;;;;5.50;4.38;;;18.80;48.30;;;;;;5066299;28;20173;-65
2021/01/11 06:44:47;;;;;;;5.40;4.78;;;18.80;48.40;;;;;;5084073;28;20216;-64
2021/01/11 06:47:12;;;;;;;5.97;5.30;;;18.80;48.30;;;;;;5084116;28;20975;-64
2021/01/11 06:49:38;;;;;;;5.03;4.47;;;18.70;48.40;;;;;;5065660;28;20181;-65
2021/01/11 06:52:08;;;;;;;5.47;4.97;;;18.70;48.50;;;;;;5083931;28;20219;-63
2021/01/11 06:54:51;;;;;;;6.45;5.07;;;18.70;48.50;;;;;;5066258;28;20182;-62
2021/01/11 06:57:19;;;;;;;5.88;4.70;;;18.70;48.70;;;;;;5066176;28;20178;-66
2021/01/11 06:59:46;;;;;;;5.88;4.68;;;18.70;48.80;;;;;;5084086;28;20201;-65
2021/01/11 07:02:18;;;;;;;4.88;4.40;;;18.70;48.80;;;;;;5084167;28;20219;-65
2021/01/11 07:04:44;;;;;;;5.05;4.65;;;18.60;48.80;;;;;;5083826;28;20657;-64
2021/01/11 07:07:15;;;;;;;5.15;4.65;;;18.50;48.90;;;;;;5084023;28;20178;-64
2021/01/11 07:09:51;;;;;;;5.55;4.60;;;18.40;49.20;;;;;;5066837;28;20945;-65
2021/01/11 07:12:19;;;;;;;5.85;4.78;;;18.30;49.40;;;;;;5084104;28;20201;-64
2021/01/11 07:15:04;;;;;;;6.00;4.85;;;18.20;49.50;;;;;;5084048;28;20174;-64
2021/01/11 07:17:43;;;;;;;4.65;4.25;;;18.10;49.70;;;;;;5083754;28;20181;-65
2021/01/11 07:20:13;;;;;;;6.35;5.40;;;18.00;49.80;;;;;;5066307;28;20193;-65
2021/01/11 07:22:39;;;;;;;6.07;5.20;;;18.00;49.80;;;;;;5084089;28;20209;-65
2021/01/11 07:25:24;;;;;;;5.80;5.30;;;18.00;50.00;;;;;;5066020;28;20269;-65
2021/01/11 07:27:55;;;;;;;5.82;5.25;;;18.00;49.90;;;;;;5083836;28;20690;-65
2021/01/11 07:30:21;;;;;;;5.40;4.82;;;18.00;49.90;;;;;;5065998;28;20174;-65
2021/01/11 07:32:47;;;;;;;5.30;4.80;;;18.00;49.90;;;;;;5065459;28;20253;-65
2021/01/11 07:35:12;;;;;;;5.05;4.55;;;18.00;49.80;;;;;;5084068;28;20197;-65
2021/01/11 07:37:38;;;;;;;5.13;4.63;;;18.10;49.80;;;;;;5083935;28;20178;-65
2021/01/11 07:40:06;;;;;;;4.80;4.40;;;18.10;49.70;;;;;;5083905;28;20805;-64
2021/01/11 07:42:31;;;;;;;5.68;5.15;;;18.10;49.70;;;;;;5084191;28;20200;-64
2021/01/11 07:44:57;;;;;;;5.57;4.78;;;18.10;49.60;;;;;;5087342;28;20178;-64
2021/01/11 07:47:22;;;;;;;5.45;4.95;;;18.10;49.70;;;;;;5069084;28;20236;-66
2021/01/11 07:49:51;;;;;;;5.50;5.00;;;18.10;49.80;;;;;;5087199;28;20239;-65
2021/01/11 07:52:18;;;;;;;5.20;4.47;;;18.00;49.90;;;;;;5087487;28;20185;-66
2021/01/11 07:54:44;;;;;;;5.22;4.72;;;17.80;50.30;;;;;;5069460;28;20174;-65
2021/01/11 07:57:10;;;;;;;7.32;4.85;;;17.80;50.70;;;;;;5069690;28;20173;-65
2021/01/11 07:59:36;;;;;;;5.38;4.35;;;17.70;50.80;;;;;;5087243;28;20292;-64
2021/01/11 08:02:03;;;;;;;6.05;4.50;;;17.70;50.80;;;;;;5069362;28;20288;-64
2021/01/11 08:04:38;;;;;;;5.57;4.57;;;17.70;50.80;;;;;;5069261;28;20174;-64
2021/01/11 08:07:06;;;;;;;5.60;5.05;;;17.70;50.70;;;;;;5087124;28;20177;-65
2021/01/11 08:09:31;;;;;;;5.78;5.28;;;17.70;50.60;;;;;;5068976;28;20260;-64
2021/01/11 08:12:15;;;;;;;5.40;4.85;;;17.70;50.50;;;;;;5069019;28;20583;-64
2021/01/11 08:14:41;;;;;;;5.20;4.70;;;17.80;50.40;;;;;;5087118;28;20170;-65
2021/01/11 08:17:11;;;;;;;5.38;4.88;;;17.80;50.40;;;;;;5086929;28;20180;-64
2021/01/11 08:19:41;;;;;;;5.03;4.63;;;17.80;50.30;;;;;;5068536;28;20732;-65
2021/01/11 08:22:09;;;;;;;5.15;4.57;;;17.90;50.30;;;;;;5087167;28;20184;-65
2021/01/11 08:24:35;;;;;;;4.72;4.30;;;17.90;50.10;;;;;;5086430;28;20189;-66
2021/01/11 08:27:08;;;;;;;6.07;4.70;;;17.90;50.10;;;;;;5068856;28;20178;-65
2021/01/11 08:29:35;;;;;;;5.25;4.47;;;17.80;50.20;;;;;;5068956;28;20190;-66
2021/01/11 08:32:08;;;;;;;5.15;4.65;;;17.70;50.30;;;;;;5068657;28;20198;-66
2021/01/11 08:34:33;;;;;;;5.13;4.63;;;17.70;50.50;;;;;;5068717;28;20174;-66
2021/01/11 08:36:59;;;;;;;5.40;4.90;;;17.60;50.60;;;;;;5068180;28;20524;-66
2021/01/11 08:39:25;;;;;;;4.88;4.47;;;17.60;50.70;;;;;;5086188;28;20197;-66
2021/01/11 08:41:53;;;;;;;8.25;5.57;;;17.50;50.60;;;;;;5068368;28;20177;-65
2021/01/11 08:44:26;;;;;;;5.35;4.72;;;17.50;50.60;;;;;;5086314;28;20170;-65
2021/01/11 08:46:56;;;;;;;4.47;4.07;;;17.60;50.50;;;;;;5067980;28;20625;-65
2021/01/11 08:49:21;;;;;;;5.55;4.80;;;17.60;50.40;;;;;;5068464;28;20196;-65
2021/01/11 08:51:47;;;;;;;4.43;4.00;;;17.60;50.40;;;;;;5068148;28;20178;-65
2021/01/11 08:54:28;;;;;;;5.20;4.75;;;17.70;50.30;;;;;;5085708;28;21006;-65
2021/01/11 08:56:55;;;;;;;4.85;4.00;;;17.70;50.20;;;;;;5067878;28;20248;-65
2021/01/11 08:59:20;;;;;;;4.70;4.28;;;17.70;50.10;;;;;;5068119;28;20209;-65
2021/01/11 09:01:46;;;;;;;4.70;4.30;;;17.70;50.20;;;;;;5086070;28;20535;-65
2021/01/11 09:04:27;;;;;;;4.95;4.32;;;17.60;50.30;;;;;;5085759;28;20177;-66
2021/01/11 09:06:52;;;;;;;4.63;3.90;;;17.60;50.50;;;;;;5067767;28;20280;-65
2021/01/11 09:09:19;;;;;;;4.18;3.83;;;17.50;50.50;;;;;;5067805;28;20276;-66
2021/01/11 09:11:46;;;;;;;4.40;4.00;;;17.40;50.50;;;;;;5085748;28;20206;-66
2021/01/11 09:14:16;;;;;;;4.80;4.40;;;17.40;50.60;;;;;;5085768;28;20239;-66
2021/01/11 09:16:42;;;;;;;4.70;4.30;;;17.50;50.60;;;;;;5086147;28;20204;-66
2021/01/11 09:19:11;;;;;;;4.50;4.10;;;17.40;50.60;;;;;;5085604;28;20261;-65
2021/01/11 09:21:39;;;;;;;3.95;3.55;;;17.50;50.60;;;;;;5085696;28;20188;-65
2021/01/11 09:24:05;;;;;;;4.32;3.92;;;17.50;50.60;;;;;;5085453;28;20174;-67
2021/01/11 09:26:34;;;;;;;4.57;4.15;;;17.50;50.40;;;;;;5067539;28;20174;-66
2021/01/11 09:29:00;;;;;;;4.15;3.80;;;17.50;50.40;;;;;;5084578;28;20209;-65
2021/01/11 09:31:25;;;;;;;3.75;3.45;;;17.50;50.40;;;;;;5067448;28;20166;-65
2021/01/11 09:33:53;;;;;;;4.43;3.78;;;17.40;50.40;;;;;;5050976;28;20182;-65
2021/01/11 09:36:21;;;;;;;4.15;3.70;;;17.40;50.50;;;;;;5067833;28;20169;-66
2021/01/11 09:38:50;;;;;;;4.07;3.78;;;17.40;50.60;;;;;;5085129;28;20675;-65
2021/01/11 09:41:16;;;;;;;5.00;4.30;;;17.30;50.60;;;;;;5085527;28;20546;-66
2021/01/11 09:43:42;;;;;;;4.47;4.07;;;17.30;50.70;;;;;;5067364;28;20260;-66
2021/01/11 09:46:08;;;;;;;4.00;3.60;;;17.30;50.70;;;;;;5067290;28;20269;-66
2021/01/11 09:48:34;;;;;;;4.32;3.92;;;17.30;50.80;;;;;;5067340;28;20170;-65
2021/01/11 09:50:59;;;;;;;4.13;3.83;;;17.40;50.70;;;;;;5085045;28;20576;-65
2021/01/11 09:53:25;;;;;;;4.13;3.72;;;17.40;50.80;;;;;;5066941;28;20182;-66
2021/01/11 09:55:51;;;;;;;4.70;3.88;;;17.40;50.60;;;;;;5085010;28;20287;-66
2021/01/11 09:58:16;;;;;;;3.85;3.55;;;17.40;50.50;;;;;;5085047;28;20198;-66
2021/01/11 10:00:42;;;;;;;3.60;3.30;;;17.40;50.50;;;;;;5066490;28;20186;-64
2021/01/11 10:03:08;;;;;;;5.03;3.95;;;17.30;50.40;;;;;;5084962;28;20170;-65
2021/01/11 10:05:34;;;;;;;4.15;3.42;;;17.30;50.50;;;;;;5084664;28;20184;-64
2021/01/11 10:07:59;;;;;;;4.30;3.90;;;17.30;50.60;;;;;;5084042;28;20182;-64
2021/01/11 10:10:25;;;;;;;4.38;3.97;;;17.30;50.70;;;;;;5066760;28;20180;-65
2021/01/11 10:12:50;;;;;;;4.07;3.60;;;17.20;50.60;;;;;;5084977;28;20627;-66
2021/01/11 10:15:16;;;;;;;4.13;3.80;;;17.30;50.80;;;;;;5084820;28;20211;-65
2021/01/11 10:17:41;;;;;;;3.90;3.60;;;17.30;50.80;;;;;;5066326;28;20284;-65
2021/01/11 10:20:07;;;;;;;3.72;3.42;;;17.20;50.60;;;;;;5084519;28;20185;-66
2021/01/11 10:22:33;;;;;;;3.67;3.38;;;17.30;50.70;;;;;;5084782;28;20184;-65
2021/01/11 10:25:00;;;;;;;4.28;3.58;;;17.30;50.70;;;;;;5084334;28;20174;-66
2021/01/11 10:27:26;;;;;;;3.47;3.17;;;17.40;50.60;;;;;;5084485;28;20195;-66
2021/01/11 10:29:51;;;;;;;3.25;2.95;;;17.30;50.50;;;;;;5084230;28;20308;-65
2021/01/11 10:32:17;;;;;;;3.42;3.13;;;17.30;50.50;;;;;;5084081;28;20178;-66
2021/01/11 10:34:42;;;;;;;3.40;3.10;;;17.30;50.60;;;;;;5084435;28;20177;-65
2021/01/11 10:37:08;;;;;;;4.10;3.70;;;17.30;50.60;;;;;;5084296;28;20174;-66
2021/01/11 10:39:33;;;;;;;3.60;3.30;;;17.20;50.60;;;;;;5084189;28;20714;-65
2021/01/11 10:41:59;;;;;;;3.67;3.00;;;17.20;50.70;;;;;;5066084;28;20177;-66
2021/01/11 10:44:25;;;;;;;3.60;3.30;;;17.20;50.70;;;;;;5083776;28;20226;-65
2021/01/11 10:46:50;;;;;;;3.60;3.20;;;17.20;50.70;;;;;;5084682;28;20193;-65
2021/01/11 10:49:16;;;;;;;3.58;3.25;;;17.20;50.70;;;;;;5065767;28;20256;-66
2021/01/11 10:51:42;;;;;;;3.60;3.30;;;17.20;51.30;;;;;;5066041;28;20174;-65
2021/01/11 10:54:07;;;;;;;5.35;3.42;;;17.20;50.70;;;;;;5066050;28;20207;-64
2021/01/11 10:56:33;;;;;;;5.63;3.70;;;17.10;50.90;;;;;;5084008;28;20265;-63
2021/01/11 10:58:58;;;;;;;5.80;3.67;;;17.10;51.20;;;;;;5083983;28;20205;-66
2021/01/11 11:01:24;;;;;;;4.85;3.38;;;17.10;51.80;;;;;;5083669;28;20209;-66
2021/01/11 11:03:50;;;;;;;4.35;3.72;;;17.10;51.90;;;;;;5083975;28;20170;-67
2021/01/11 11:06:18;;;;;;;4.00;3.60;;;17.10;51.80;;;;;;5084328;28;20556;-67
2021/01/11 11:08:44;;;;;;;3.90;3.47;;;17.10;51.70;;;;;;5083970;28;20265;-66
2021/01/11 11:11:11;;;;;;;3.03;2.65;;;17.10;51.80;;;;;;5084153;28;20604;-67
2021/01/11 11:13:38;;;;;;;3.53;3.22;;;17.20;51.70;;;;;;5066106;28;20257;-67
2021/01/11 11:16:09;;;;;;;4.50;3.45;;;17.20;51.70;;;;;;5083850;28;20257;-67
2021/01/11 11:18:35;;;;;;;3.80;2.88;;;17.30;51.70;;;;;;5085034;28;21126;-66
2021/01/11 11:21:00;;;;;;;3.33;2.80;;;17.40;51.60;;;;;;5087777;28;20231;-67
2021/01/11 11:23:26;;;;;;;3.30;3.00;;;17.50;51.40;;;;;;5087488;28;20910;-67
2021/01/11 11:25:52;;;;;;;4.80;3.00;;;17.50;51.40;;;;;;5088218;28;20635;-63
2021/01/11 11:28:17;;;;;;;3.97;3.63;;;17.50;51.40;;;;;;5087973;28;20504;-68
2021/01/11 11:30:43;;;;;;;3.50;3.20;;;17.50;51.60;;;;;;5087165;28;20650;-67
2021/01/11 11:33:09;;;;;;;4.68;2.83;;;17.50;51.80;;;;;;5087398;28;20166;-67
2021/01/11 11:35:35;;;;;;;3.42;3.13;;;17.40;51.80;;;;;;5068773;28;20189;-67
2021/01/11 11:38:00;;;;;;;3.03;2.83;;;17.40;51.80;;;;;;5068962;28;20201;-66
2021/01/11 11:40:26;;;;;;;2.75;2.55;;;17.40;51.90;;;;;;5086796;28;20550;-68
2021/01/11 11:42:51;;;;;;;3.28;2.90;;;17.40;51.80;;;;;;5068562;28;20198;-66
2021/01/11 11:45:18;;;;;;;3.58;2.95;;;17.40;51.80;;;;;;5086465;28;20186;-67
2021/01/11 11:47:44;;;;;;;2.88;2.67;;;17.40;51.70;;;;;;5086401;28;20627;-68
2021/01/11 11:50:11;;;;;;;2.92;2.60;;;17.50;51.70;;;;;;5069408;28;20174;-67
2021/01/11 11:52:37;;;;;;;3.67;2.85;;;17.50;51.60;;;;;;5087020;28;20162;-67
2021/01/11 11:55:04;;;;;;;3.38;2.92;;;17.50;51.70;;;;;;5069204;28;20234;-67
2021/01/11 11:57:29;;;;;;;3.03;2.80;;;17.50;51.70;;;;;;5069212;28;20700;-66
2021/01/11 11:59:55;;;;;;;2.83;2.63;;;17.40;51.70;;;;;;5069277;28;20197;-66
2021/01/11 12:02:20;;;;;;;3.45;2.40;;;17.40;51.80;;;;;;5068899;28;20523;-66
2021/01/11 12:04:46;;;;;;;4.35;3.08;;;17.30;51.80;;;;;;5086976;28;20170;-66
2021/01/11 12:07:15;;;;;;;5.80;2.78;;;17.30;51.90;;;;;;5087333;28;20206;-67
2021/01/11 12:09:41;;;;;;;2.85;2.65;;;17.30;51.90;;;;;;5069099;28;20201;-67
2021/01/11 12:12:06;;;;;;;3.60;2.80;;;17.30;51.80;;;;;;5086917;28;20201;-67
2021/01/11 12:14:32;;;;;;;2.92;2.63;;;17.40;51.80;;;;;;5069190;28;20177;-67
2021/01/11 12:16:57;;;;;;;3.22;2.80;;;17.40;51.80;;;;;;5086869;28;20202;-64
2021/01/11 12:19:23;;;;;;;4.15;2.58;;;17.40;51.80;;;;;;5086902;28;20212;-63
2021/01/11 12:21:49;;;;;;;3.00;2.60;;;17.50;52.10;;;;;;5068622;28;20223;-62
2021/01/11 12:24:14;;;;;;;3.05;2.75;;;17.40;52.30;;;;;;5086919;28;20950;-65
2021/01/11 12:26:44;;;;;;;3.22;2.95;;;17.30;52.50;;;;;;5086702;28;20515;-65
2021/01/11 12:29:10;;;;;;;2.83;2.63;;;17.30;52.70;;;;;;5068707;28;20200;-67
2021/01/11 12:31:35;;;;;;;2.95;2.65;;;17.30;52.60;;;;;;5068068;28;20173;-67
2021/01/11 12:34:01;;;;;;;2.83;2.58;;;17.30;52.60;;;;;;5068843;28;20692;-66
2021/01/11 12:36:28;;;;;;;3.13;2.60;;;17.20;52.50;;;;;;5086770;28;20178;-67
2021/01/11 12:38:54;;;;;;;3.50;3.20;;;17.30;52.40;;;;;;5068574;28;20677;-66
2021/01/11 12:41:20;;;;;;;3.15;2.45;;;17.20;52.30;;;;;;5086572;28;20170;-66
2021/01/11 12:43:46;;;;;;;3.22;2.92;;;17.30;52.20;;;;;;5068944;28;20201;-66
2021/01/11 12:46:12;;;;;;;2.90;2.70;;;17.30;52.10;;;;;;5086127;28;20204;-65
2021/01/11 12:48:38;;;;;;;2.70;2.50;;;17.40;52.10;;;;;;5086324;28;20166;-65